createdAt,value
2022-10-30T00:01:05.626Z,75.90
2022-10-30T00:03:33.841Z,74.90
2022-10-30T00:06:05.649Z,74.50
2022-10-30T00:08:34.395Z,74.30
2022-10-30T00:11:07.546Z,75.10
2022-10-30T00:13:35.986Z,74.30
2022-10-30T00:16:08.085Z,74.70
2022-10-30T00:18:36.949Z,75.20
2022-10-30T00:21:09.696Z,75.50
2022-10-30T00:23:38.176Z,75.70
2022-10-30T00:26:08.170Z,76.10
2022-10-30T00:28:36.512Z,80.30
2022-10-30T00:31:07.014Z,79.90
2022-10-30T00:33:35.751Z,80.10
2022-10-30T00:36:06.343Z,77.90
2022-10-30T00:38:35.782Z,77.00
2022-10-30T00:41:04.067Z,76.40
2022-10-30T00:43:36.015Z,75.50
2022-10-30T00:46:15.297Z,75.00
2022-10-30T00:48:45.494Z,75.90
2022-10-30T00:51:14.931Z,75.80
2022-10-30T00:53:44.130Z,75.30
2022-10-30T00:56:13.933Z,78.20
2022-10-30T00:58:47.206Z,78.90
2022-10-30T01:01:20.976Z,84.80
2022-10-30T01:03:53.911Z,86.40
2022-10-30T01:06:22.597Z,83.30
2022-10-30T01:08:57.049Z,80.90
2022-10-30T01:11:28.257Z,78.40
2022-10-30T01:13:59.417Z,76.00
2022-10-30T01:16:45.554Z,74.70
2022-10-30T01:19:25.897Z,75.00
2022-10-30T01:22:08.031Z,74.10
2022-10-30T01:24:48.895Z,74.10
2022-10-30T01:27:32.493Z,73.80
2022-10-30T01:30:12.030Z,73.90
2022-10-30T01:32:56.349Z,73.90
2022-10-30T01:35:32.794Z,74.20
2022-10-30T01:38:08.198Z,73.60
2022-10-30T01:40:37.655Z,73.60
2022-10-30T01:43:06.453Z,73.50
2022-10-30T01:46:03.614Z,73.60
2022-10-30T01:48:56.814Z,73.90
2022-10-30T01:51:34.891Z,74.40
2022-10-30T01:54:12.708Z,74.10
2022-10-30T01:56:52.011Z,73.60
2022-10-30T01:59:26.481Z,73.50
2022-10-30T02:01:55.278Z,73.40
2022-10-30T02:04:25.543Z,72.80
2022-10-30T02:06:55.019Z,72.70
2022-10-30T02:09:25.018Z,72.70
2022-10-30T02:11:54.612Z,73.20
2022-10-30T02:14:28.059Z,73.60
2022-10-30T02:16:59.707Z,74.00
2022-10-30T02:19:29.607Z,74.40
2022-10-30T02:21:59.555Z,74.60
2022-10-30T02:24:28.854Z,74.90
2022-10-30T02:26:57.026Z,75.50
2022-10-30T02:29:25.292Z,75.60
2022-10-30T02:31:53.994Z,75.80
2022-10-30T02:34:22.374Z,76.80
2022-10-30T02:36:50.560Z,77.30
2022-10-30T02:39:21.341Z,77.30
2022-10-30T02:41:49.902Z,77.20
2022-10-30T02:44:18.270Z,77.10
2022-10-30T02:46:49.034Z,76.90
2022-10-30T02:49:17.319Z,79.10
2022-10-30T02:51:46.735Z,79.20
2022-10-30T02:54:15.209Z,78.60
2022-10-30T02:56:45.140Z,77.40
2022-10-30T02:59:13.340Z,78.10
2022-10-30T03:01:41.753Z,78.80
2022-10-30T03:04:16.627Z,77.30
2022-10-30T03:06:44.968Z,76.80
2022-10-30T03:09:13.214Z,79.70
2022-10-30T03:11:41.426Z,79.40
2022-10-30T03:14:11.012Z,78.30
2022-10-30T03:16:39.542Z,75.90
2022-10-30T03:19:07.728Z,75.00
2022-10-30T03:21:36.062Z,75.00
2022-10-30T03:24:04.370Z,75.00
2022-10-30T03:26:33.885Z,74.50
2022-10-30T03:29:06.782Z,74.10
2022-10-30T03:31:36.473Z,74.10
2022-10-30T03:34:12.367Z,74.20
2022-10-30T03:36:42.896Z,74.50
2022-10-30T03:39:11.501Z,74.60
2022-10-30T03:41:40.641Z,75.00
2022-10-30T03:44:09.482Z,75.00
2022-10-30T03:46:39.649Z,75.30
2022-10-30T03:49:19.073Z,75.70
2022-10-30T03:51:47.286Z,75.60
2022-10-30T03:54:15.647Z,75.80
2022-10-30T03:56:45.864Z,76.30
2022-10-30T03:59:17.667Z,77.50
2022-10-30T04:02:02.490Z,77.20
2022-10-30T04:04:31.098Z,76.90
2022-10-30T04:06:59.278Z,76.90
2022-10-30T04:09:27.782Z,77.20
2022-10-30T04:11:56.034Z,76.80
2022-10-30T04:14:24.490Z,76.00
2022-10-30T04:16:52.703Z,75.00
2022-10-30T04:19:22.472Z,75.00
2022-10-30T04:21:51.371Z,74.80
2022-10-30T04:24:20.396Z,75.10
2022-10-30T04:26:53.430Z,76.30
2022-10-30T04:29:21.954Z,75.90
2022-10-30T04:31:50.171Z,77.50
2022-10-30T04:34:18.791Z,76.10
2022-10-30T04:36:48.385Z,75.90
2022-10-30T04:39:16.509Z,77.10
2022-10-30T04:41:45.574Z,79.20
2022-10-30T04:44:20.428Z,78.50
2022-10-30T04:46:49.230Z,77.00
2022-10-30T04:49:17.374Z,76.10
2022-10-30T04:51:46.432Z,76.20
2022-10-30T04:54:16.259Z,74.70
2022-10-30T04:56:44.553Z,74.80
2022-10-30T04:59:12.808Z,78.20
2022-10-30T05:01:41.220Z,76.70
2022-10-30T05:04:09.557Z,76.50
2022-10-30T05:06:37.771Z,76.90
2022-10-30T05:09:05.941Z,77.50
2022-10-30T05:11:39.513Z,77.80
2022-10-30T05:14:08.918Z,78.50
2022-10-30T05:16:38.480Z,77.60
2022-10-30T05:19:07.534Z,78.00
2022-10-30T05:21:36.576Z,78.10
2022-10-30T05:24:06.270Z,78.20
2022-10-30T05:26:43.586Z,77.70
2022-10-30T05:29:13.318Z,78.10
2022-10-30T05:31:41.706Z,76.90
2022-10-30T05:34:19.119Z,76.70
2022-10-30T05:36:50.851Z,76.30
2022-10-30T05:39:19.901Z,75.90
2022-10-30T05:41:52.797Z,76.00
2022-10-30T05:44:40.427Z,76.20
2022-10-30T05:47:12.049Z,76.10
2022-10-30T05:49:42.925Z,76.00
2022-10-30T05:52:16.635Z,76.60
2022-10-30T05:54:44.766Z,78.70
2022-10-30T05:57:33.224Z,77.30
2022-10-30T06:00:02.497Z,77.10
2022-10-30T06:02:32.418Z,76.80
2022-10-30T06:05:00.867Z,77.30
2022-10-30T06:07:29.078Z,76.90
2022-10-30T06:09:57.251Z,76.60
2022-10-30T06:12:43.955Z,76.90
2022-10-30T06:15:18.444Z,77.20
2022-10-30T06:17:47.310Z,77.00
2022-10-30T06:20:35.567Z,77.40
2022-10-30T06:23:30.529Z,77.80
2022-10-30T06:26:09.164Z,77.80
2022-10-30T06:28:46.169Z,78.30
2022-10-30T06:31:16.283Z,78.40
2022-10-30T06:33:44.585Z,78.30
2022-10-30T06:36:15.112Z,78.30
2022-10-30T06:38:45.024Z,78.30
2022-10-30T06:41:15.537Z,78.50
2022-10-30T06:44:08.538Z,78.60
2022-10-30T06:46:38.504Z,78.40
2022-10-30T06:49:06.745Z,78.20
2022-10-30T06:51:36.214Z,78.00
2022-10-30T06:54:05.097Z,77.80
2022-10-30T06:56:42.502Z,77.20
2022-10-30T06:59:14.865Z,78.00
2022-10-30T07:02:06.889Z,78.80
2022-10-30T07:04:46.190Z,78.70
2022-10-30T07:07:14.708Z,78.90
2022-10-30T07:09:43.238Z,78.50
2022-10-30T07:12:11.315Z,77.80
2022-10-30T07:14:59.318Z,79.20
2022-10-30T07:17:42.738Z,79.00
2022-10-30T07:20:19.781Z,77.80
2022-10-30T07:22:47.954Z,78.30
2022-10-30T07:25:16.392Z,79.00
2022-10-30T07:27:55.606Z,78.10
2022-10-30T07:30:51.547Z,77.10
2022-10-30T07:33:26.458Z,76.60
2022-10-30T07:36:02.813Z,76.30
2022-10-30T07:39:01.794Z,75.70
2022-10-30T07:41:36.025Z,75.40
2022-10-30T07:44:34.085Z,75.70
2022-10-30T07:47:32.417Z,75.50
2022-10-30T07:50:00.653Z,76.60
2022-10-30T07:52:33.592Z,77.30
2022-10-30T07:55:02.262Z,76.10
2022-10-30T07:57:46.065Z,75.70
2022-10-30T08:00:32.986Z,74.80
2022-10-30T08:04:33.875Z,74.20
2022-10-30T08:12:56.619Z,74.90
2022-10-30T08:15:28.451Z,74.80
2022-10-30T08:18:13.607Z,71.90
2022-10-30T08:23:23.198Z,73.20
2022-10-30T08:25:54.184Z,72.70
2022-10-30T08:28:28.324Z,71.30
2022-10-30T08:31:16.245Z,71.50
2022-10-30T08:34:03.086Z,71.40
2022-10-30T08:36:37.346Z,70.50
2022-10-30T08:39:06.072Z,69.10
2022-10-30T08:42:04.787Z,68.00
2022-10-30T08:44:39.495Z,66.70
2022-10-30T08:47:32.134Z,66.90
2022-10-30T08:50:00.509Z,65.90
2022-10-30T08:52:32.225Z,62.30
2022-10-30T08:55:00.893Z,63.90
2022-10-30T08:57:36.976Z,61.70
2022-10-30T09:00:05.680Z,62.20
2022-10-30T09:03:13.614Z,62.70
2022-10-30T09:06:01.214Z,64.90
2022-10-30T09:08:38.580Z,63.80
2022-10-30T09:11:30.320Z,60.90
2022-10-30T09:14:00.311Z,62.70
2022-10-30T09:16:28.675Z,62.80
2022-10-30T09:18:58.416Z,61.00
2022-10-30T09:21:26.736Z,59.80
2022-10-30T09:23:55.683Z,58.70
2022-10-30T09:26:35.941Z,60.40
2022-10-30T09:29:14.801Z,59.70
2022-10-30T09:32:02.514Z,58.70
2022-10-30T09:34:36.727Z,59.30
2022-10-30T09:37:09.622Z,58.70
2022-10-30T09:39:40.461Z,59.20
2022-10-30T09:42:27.341Z,58.40
2022-10-30T09:48:20.986Z,58.00
2022-10-30T09:51:25.200Z,54.10
2022-10-30T09:54:37.121Z,54.20
2022-10-30T09:57:14.143Z,54.10
2022-10-30T09:59:51.777Z,55.70
2022-10-30T10:02:42.476Z,55.30
2022-10-30T10:05:48.007Z,56.20
2022-10-30T10:08:40.709Z,54.80
2022-10-30T10:11:32.272Z,56.70
2022-10-30T10:14:08.642Z,53.70
2022-10-30T10:16:40.735Z,55.80
2022-10-30T10:19:16.296Z,55.10
2022-10-30T10:21:48.299Z,54.30
2022-10-30T10:24:21.154Z,55.10
2022-10-30T10:26:51.388Z,53.40
2022-10-30T10:29:33.308Z,53.00
2022-10-30T10:32:22.295Z,53.90
2022-10-30T10:34:58.613Z,53.40
2022-10-30T10:37:37.822Z,53.30
2022-10-30T10:40:21.756Z,52.60
2022-10-30T10:43:01.831Z,52.30
2022-10-30T10:45:45.550Z,53.30
2022-10-30T10:48:48.804Z,51.70
2022-10-30T10:51:21.490Z,50.40
2022-10-30T10:53:55.852Z,51.30
2022-10-30T10:56:29.350Z,51.70
2022-10-30T10:59:01.625Z,51.60
2022-10-30T11:01:37.640Z,51.60
2022-10-30T11:04:11.702Z,52.90
2022-10-30T11:06:42.618Z,53.20
2022-10-30T11:09:16.749Z,52.90
2022-10-30T11:11:46.772Z,52.30
2022-10-30T11:14:16.960Z,49.70
2022-10-30T11:17:01.906Z,50.00
2022-10-30T11:19:34.376Z,50.20
2022-10-30T11:22:11.922Z,50.70
2022-10-30T11:24:40.194Z,49.90
2022-10-30T11:27:25.989Z,48.60
2022-10-30T11:29:57.824Z,48.80
2022-10-30T11:32:29.984Z,49.60
2022-10-30T11:35:04.343Z,48.80
2022-10-30T11:37:34.674Z,47.30
2022-10-30T11:40:06.283Z,46.30
2022-10-30T11:42:36.919Z,46.40
2022-10-30T11:45:07.281Z,47.60
2022-10-30T11:47:38.636Z,47.70
2022-10-30T11:50:09.327Z,48.50
2022-10-30T11:52:41.519Z,49.20
2022-10-30T11:55:17.576Z,52.50
2022-10-30T11:57:50.934Z,50.80
2022-10-30T12:00:23.272Z,49.80
2022-10-30T12:02:53.909Z,48.90
2022-10-30T12:05:37.341Z,48.90
2022-10-30T12:08:23.319Z,48.60
2022-10-30T12:11:03.805Z,49.20
2022-10-30T12:13:39.764Z,49.00
2022-10-30T12:16:14.283Z,47.30
2022-10-30T12:18:43.903Z,47.90
2022-10-30T12:21:18.891Z,47.60
2022-10-30T12:23:53.915Z,47.90
2022-10-30T12:26:24.446Z,48.80
2022-10-30T12:28:58.819Z,47.50
2022-10-30T12:31:36.019Z,50.00
2022-10-30T12:34:19.839Z,47.60
2022-10-30T12:36:56.925Z,47.10
2022-10-30T12:39:32.018Z,47.00
2022-10-30T12:42:04.260Z,48.10
2022-10-30T12:44:38.125Z,46.90
2022-10-30T12:47:13.185Z,46.30
2022-10-30T12:49:44.780Z,46.30
2022-10-30T12:52:19.229Z,44.40
2022-10-30T12:54:54.883Z,44.40
2022-10-30T12:57:27.908Z,44.70
2022-10-30T13:00:04.638Z,44.00
2022-10-30T13:02:49.424Z,45.30
2022-10-30T13:05:29.550Z,44.60
2022-10-30T13:08:05.999Z,44.20
2022-10-30T13:10:40.516Z,43.70
2022-10-30T13:13:15.882Z,44.70
2022-10-30T13:15:49.022Z,45.90
2022-10-30T13:18:19.413Z,42.80
2022-10-30T13:21:03.325Z,42.50
2022-10-30T13:23:39.500Z,43.90
2022-10-30T13:26:18.856Z,44.30
2022-10-30T13:28:54.950Z,47.30
2022-10-30T13:31:36.180Z,45.20
2022-10-30T13:34:14.559Z,46.30
2022-10-30T13:36:49.684Z,49.40
2022-10-30T13:39:26.385Z,48.50
2022-10-30T13:42:09.786Z,50.40
2022-10-30T13:44:48.327Z,49.50
2022-10-30T13:47:30.804Z,50.60
2022-10-30T13:50:20.192Z,51.40
2022-10-30T13:52:54.374Z,48.80
2022-10-30T13:55:26.896Z,49.00
2022-10-30T13:58:03.221Z,48.90
2022-10-30T14:00:57.701Z,47.20
2022-10-30T14:03:45.835Z,49.50
2022-10-30T14:06:25.469Z,47.60
2022-10-30T14:09:01.785Z,46.10
2022-10-30T14:11:30.392Z,42.50
2022-10-30T14:14:05.264Z,41.50
2022-10-30T14:16:42.922Z,42.30
2022-10-30T14:19:13.586Z,40.10
2022-10-30T14:21:44.508Z,39.00
2022-10-30T14:24:19.383Z,38.80
2022-10-30T14:26:59.269Z,39.10
2022-10-30T14:29:45.782Z,41.40
2022-10-30T14:32:43.083Z,39.60
2022-10-30T14:35:37.316Z,41.40
2022-10-30T14:38:26.087Z,40.00
2022-10-30T14:41:36.071Z,42.00
2022-10-30T14:44:18.975Z,44.50
2022-10-30T14:47:01.662Z,44.40
2022-10-30T14:49:49.177Z,43.40
2022-10-30T14:52:30.635Z,47.90
2022-10-30T14:55:20.136Z,49.70
2022-10-30T14:57:53.547Z,53.90
2022-10-30T15:00:40.291Z,56.90
2022-10-30T15:03:25.988Z,56.50
2022-10-30T15:05:58.672Z,56.60
2022-10-30T15:08:56.107Z,57.00
2022-10-30T15:11:53.023Z,57.70
2022-10-30T15:14:40.525Z,56.20
2022-10-30T15:17:24.331Z,56.30
2022-10-30T15:19:52.881Z,56.40
2022-10-30T15:22:24.802Z,56.30
2022-10-30T15:24:55.305Z,57.30
2022-10-30T15:27:25.494Z,57.00
2022-10-30T15:29:56.745Z,57.10
2022-10-30T15:32:26.202Z,56.50
2022-10-30T15:34:56.767Z,56.50
2022-10-30T15:37:25.595Z,56.40
2022-10-30T15:40:17.508Z,56.60
2022-10-30T15:42:46.528Z,56.60
2022-10-30T15:45:19.940Z,56.50
2022-10-30T15:47:51.233Z,57.10
2022-10-30T15:50:21.965Z,57.40
2022-10-30T15:52:52.551Z,57.60
2022-10-30T15:55:28.188Z,57.80
2022-10-30T15:58:12.900Z,58.30
2022-10-30T16:00:41.741Z,58.60
2022-10-30T16:03:18.992Z,58.80
2022-10-30T16:05:47.356Z,59.00
2022-10-30T16:08:20.392Z,59.30
2022-10-30T16:10:59.971Z,59.50
2022-10-30T16:13:31.849Z,59.70
2022-10-30T16:16:02.411Z,59.50
2022-10-30T16:18:36.100Z,59.30
2022-10-30T16:21:07.344Z,59.40
2022-10-30T16:23:40.004Z,59.40
2022-10-30T16:26:25.933Z,59.50
2022-10-30T16:28:54.360Z,59.50
2022-10-30T16:31:24.536Z,59.60
2022-10-30T16:33:53.519Z,60.10
2022-10-30T16:36:22.001Z,60.30
2022-10-30T16:38:51.254Z,59.30
2022-10-30T16:41:25.853Z,59.30
2022-10-30T16:44:17.741Z,59.10
2022-10-30T16:46:50.633Z,57.70
2022-10-30T16:49:21.580Z,58.80
2022-10-30T16:51:56.641Z,59.40
2022-10-30T16:54:28.684Z,59.60
2022-10-30T16:57:00.154Z,59.80
2022-10-30T16:59:36.314Z,59.00
2022-10-30T17:02:13.769Z,60.00
2022-10-30T17:04:45.556Z,60.30
2022-10-30T17:07:23.374Z,60.70
2022-10-30T17:09:53.494Z,61.10
2022-10-30T17:12:25.137Z,61.10
2022-10-30T17:15:04.237Z,61.70
2022-10-30T17:17:36.006Z,61.50
2022-10-30T17:20:08.512Z,61.90
2022-10-30T17:22:37.465Z,62.10
2022-10-30T17:25:17.402Z,62.30
2022-10-30T17:27:49.498Z,62.50
2022-10-30T17:30:34.792Z,62.50
2022-10-30T17:33:18.659Z,63.60
2022-10-30T17:35:52.106Z,63.10
2022-10-30T17:38:23.526Z,62.30
2022-10-30T17:40:52.260Z,62.80
2022-10-30T17:43:24.245Z,62.40
2022-10-30T17:49:53.598Z,69.40
2022-10-30T17:52:22.611Z,72.60
2022-10-30T17:54:54.124Z,69.50
2022-10-30T17:57:22.812Z,67.30
2022-10-30T17:59:54.206Z,66.20
2022-10-30T18:02:24.229Z,64.90
2022-10-30T18:05:00.492Z,64.50
2022-10-30T18:07:28.864Z,64.80
2022-10-30T18:09:57.028Z,65.50
2022-10-30T18:12:25.347Z,66.10
2022-10-30T18:14:55.111Z,66.60
2022-10-30T18:17:23.278Z,67.20
2022-10-30T18:19:51.769Z,67.70
2022-10-30T18:22:20.135Z,67.80
2022-10-30T18:24:48.262Z,67.70
2022-10-30T18:27:16.633Z,67.10
2022-10-30T18:29:44.862Z,66.90
2022-10-30T18:32:14.617Z,66.50
2022-10-30T18:34:42.879Z,66.20
2022-10-30T18:37:11.565Z,65.80
2022-10-30T18:39:40.081Z,66.30
2022-10-30T18:42:10.785Z,64.80
2022-10-30T18:44:39.012Z,64.50
2022-10-30T18:47:10.498Z,64.60
2022-10-30T18:49:40.143Z,64.10
2022-10-30T18:52:10.430Z,63.80
2022-10-30T18:54:38.664Z,63.30
2022-10-30T18:57:07.010Z,62.80
2022-10-30T18:59:35.310Z,63.10
2022-10-30T19:02:03.856Z,63.20
2022-10-30T19:04:32.206Z,63.60
2022-10-30T19:07:02.317Z,63.60
2022-10-30T19:09:31.416Z,63.60
2022-10-30T19:11:59.922Z,63.60
2022-10-30T19:14:28.260Z,63.40
2022-10-30T19:16:56.728Z,63.70
2022-10-30T19:19:25.218Z,64.00
2022-10-30T19:21:53.839Z,63.90
2022-10-30T19:24:23.861Z,63.80
2022-10-30T19:30:40.459Z,64.40
2022-10-30T19:33:10.552Z,65.20
2022-10-30T19:35:38.957Z,66.50
2022-10-30T19:38:09.510Z,66.20
2022-10-30T19:40:44.365Z,66.50
2022-10-30T19:43:12.781Z,66.60
2022-10-30T19:45:41.198Z,66.40
2022-10-30T19:48:17.735Z,66.40
2022-10-30T19:50:49.270Z,66.30
2022-10-30T19:53:17.517Z,66.90
2022-10-30T19:55:49.083Z,67.10
2022-10-30T19:58:20.882Z,67.40
2022-10-30T20:00:56.052Z,67.50
2022-10-30T20:03:25.788Z,67.10
2022-10-30T20:05:55.753Z,68.10
2022-10-30T20:08:25.959Z,66.80
2022-10-30T20:10:57.489Z,66.70
2022-10-30T20:13:27.430Z,66.90
2022-10-30T20:15:57.991Z,66.80
2022-10-30T20:18:30.396Z,66.90
2022-10-30T20:21:01.784Z,67.10
2022-10-30T20:23:31.625Z,67.60
2022-10-30T20:26:08.951Z,67.70
2022-10-30T20:28:40.018Z,67.50
2022-10-30T20:35:08.894Z,67.40
2022-10-30T20:37:40.397Z,67.90
2022-10-30T20:40:14.420Z,68.00
2022-10-30T20:42:45.578Z,67.80
2022-10-30T20:45:18.611Z,68.20
2022-10-30T20:47:47.730Z,68.40
2022-10-30T20:50:17.545Z,69.20
2022-10-30T20:52:46.346Z,69.00
2022-10-30T20:55:15.688Z,68.70
2022-10-30T20:57:52.998Z,68.20
2022-10-30T21:00:21.515Z,68.40
2022-10-30T21:02:50.346Z,68.00
2022-10-30T21:05:42.295Z,72.60
2022-10-30T21:08:08.024Z,79.20
2022-10-30T21:10:38.764Z,85.90
2022-10-30T21:13:10.743Z,82.80
2022-10-30T21:15:40.637Z,78.70
2022-10-30T21:18:10.654Z,75.70
2022-10-30T21:20:41.425Z,73.50
2022-10-30T21:23:10.294Z,72.90
2022-10-30T21:25:38.710Z,70.90
2022-10-30T21:28:08.829Z,69.90
2022-10-30T21:30:37.214Z,69.00
2022-10-30T21:33:05.607Z,68.60
2022-10-30T21:35:34.065Z,68.20
2022-10-30T21:38:03.251Z,68.00
2022-10-30T21:40:31.697Z,68.10
2022-10-30T21:43:03.187Z,68.30
2022-10-30T21:45:35.092Z,69.10
2022-10-30T21:48:03.513Z,68.90
2022-10-30T21:50:32.406Z,69.40
2022-10-30T21:53:01.857Z,70.10
2022-10-30T21:55:30.652Z,70.40
2022-10-30T21:57:59.374Z,70.40
2022-10-30T22:00:28.087Z,71.20
2022-10-30T22:02:58.948Z,71.30
2022-10-30T22:05:27.330Z,71.80
2022-10-30T22:07:55.906Z,72.70
2022-10-30T22:10:24.176Z,73.20
2022-10-30T22:12:52.272Z,73.30
2022-10-30T22:15:20.527Z,73.40
2022-10-30T22:17:48.959Z,73.20
2022-10-30T22:20:18.846Z,74.10
2022-10-30T22:22:47.008Z,73.50
2022-10-30T22:25:15.335Z,73.20
2022-10-30T22:27:43.712Z,73.70
2022-10-30T22:30:12.766Z,74.00
2022-10-30T22:32:41.034Z,74.60
2022-10-30T22:35:09.902Z,74.30
2022-10-30T22:37:39.470Z,73.60
2022-10-30T22:40:08.970Z,73.30
2022-10-30T22:42:37.176Z,72.80
2022-10-30T22:45:06.080Z,72.50
2022-10-30T22:47:34.378Z,72.20
2022-10-30T22:50:02.878Z,72.20
2022-10-30T22:52:31.159Z,71.90
2022-10-30T22:55:00.751Z,71.60
2022-10-30T22:57:28.928Z,71.90
2022-10-30T22:59:57.091Z,71.40
2022-10-30T23:02:25.362Z,71.30
2022-10-30T23:04:53.668Z,71.00
2022-10-30T23:07:22.878Z,71.20
2022-10-30T23:09:51.260Z,71.80
2022-10-30T23:12:20.867Z,72.60
2022-10-30T23:14:49.071Z,73.30
2022-10-30T23:17:17.310Z,73.80
2022-10-30T23:19:45.410Z,75.10
2022-10-30T23:22:13.532Z,75.00
2022-10-30T23:24:41.722Z,75.40
2022-10-30T23:27:09.902Z,75.80
2022-10-30T23:29:39.433Z,76.20
2022-10-30T23:32:08.161Z,76.10
2022-10-30T23:34:36.341Z,76.70
2022-10-30T23:37:04.496Z,76.40
2022-10-30T23:39:32.565Z,76.90
2022-10-30T23:42:00.850Z,77.40
2022-10-30T23:44:29.200Z,77.10
2022-10-30T23:46:58.865Z,76.30
2022-10-30T23:49:31.619Z,76.40
2022-10-30T23:52:02.332Z,76.60
2022-10-30T23:54:30.814Z,76.60
2022-10-30T23:56:59.027Z,77.00
2022-10-30T23:59:27.289Z,76.80
